createdAt,value
2019-05-12T00:00:31.568Z,91.49
2019-05-12T00:03:02.935Z,92.31
2019-05-12T00:05:34.335Z,93.51
2019-05-12T00:08:08.167Z,94.16
2019-05-12T00:10:38.998Z,94.47
2019-05-12T00:13:10.250Z,93.84
2019-05-12T00:15:41.751Z,94.02
2019-05-12T00:18:13.134Z,94.13
2019-05-12T00:20:44.582Z,94.67
2019-05-12T00:23:24.928Z,95.52
2019-05-12T00:25:49.175Z,95.90
2019-05-12T00:28:21.695Z,95.89
2019-05-12T00:30:53.143Z,95.81
2019-05-12T00:33:24.648Z,95.57
2019-05-12T00:35:56.147Z,95.38
2019-05-12T00:38:29.283Z,95.00
2019-05-12T00:41:00.743Z,95.15
2019-05-12T00:43:32.115Z,95.26
2019-05-12T00:46:03.495Z,95.77
2019-05-12T00:48:34.993Z,95.96
2019-05-12T00:51:07.775Z,96.15
2019-05-12T00:53:43.186Z,96.10
2019-05-12T00:56:12.403Z,95.95
2019-05-12T00:58:43.665Z,95.82
2019-05-12T01:01:15.050Z,95.30
2019-05-12T01:03:48.326Z,94.77
2019-05-12T01:06:19.599Z,95.66
2019-05-12T01:08:50.849Z,96.21
2019-05-12T01:11:23.329Z,96.39
2019-05-12T01:13:54.804Z,96.26
2019-05-12T01:16:26.082Z,95.80
2019-05-12T01:18:58.622Z,95.26
2019-05-12T01:21:29.929Z,95.52
2019-05-12T01:24:03.485Z,95.37
2019-05-12T01:26:34.294Z,95.85
2019-05-12T01:29:05.747Z,95.62
2019-05-12T01:31:38.730Z,95.14
2019-05-12T01:34:10.014Z,94.52
2019-05-12T01:36:41.586Z,94.39
2019-05-12T01:39:12.906Z,94.11
2019-05-12T01:41:44.331Z,93.99
2019-05-12T01:44:15.673Z,94.22
2019-05-12T01:46:48.402Z,95.30
2019-05-12T01:49:20.015Z,95.93
2019-05-12T01:51:51.473Z,96.40
2019-05-12T01:54:22.756Z,97.14
2019-05-12T01:56:54.026Z,97.66
2019-05-12T01:59:25.498Z,98.00
2019-05-12T02:01:58.152Z,98.48
2019-05-12T02:04:31.430Z,98.32
2019-05-12T02:07:04.404Z,98.11
2019-05-12T02:09:38.691Z,97.96
2019-05-12T02:12:10.392Z,97.65
2019-05-12T02:14:41.765Z,97.65
2019-05-12T02:17:13.147Z,97.81
2019-05-12T02:19:44.645Z,97.67
2019-05-12T02:22:15.971Z,97.40
2019-05-12T02:24:47.928Z,97.13
2019-05-12T02:27:19.463Z,96.96
2019-05-12T02:29:51.063Z,96.59
2019-05-12T02:32:25.123Z,96.14
2019-05-12T02:34:55.423Z,96.01
2019-05-12T02:37:26.794Z,96.47
2019-05-12T02:39:58.301Z,96.27
2019-05-12T02:42:29.914Z,96.26
2019-05-12T02:45:01.271Z,96.12
2019-05-12T02:47:34.733Z,96.00
2019-05-12T02:50:09.207Z,95.07
2019-05-12T02:52:44.118Z,94.77
2019-05-12T02:55:15.046Z,94.04
2019-05-12T02:57:48.527Z,94.66
2019-05-12T03:00:19.957Z,95.36
2019-05-12T03:02:54.764Z,95.23
2019-05-12T03:05:27.560Z,95.31
2019-05-12T03:07:59.820Z,95.36
2019-05-12T03:10:31.293Z,94.79
2019-05-12T03:13:04.258Z,94.25
2019-05-12T03:15:37.430Z,93.92
2019-05-12T03:18:09.294Z,93.85
2019-05-12T03:20:40.873Z,93.04
2019-05-12T03:23:18.359Z,93.53
2019-05-12T03:25:45.833Z,93.63
2019-05-12T03:28:17.333Z,93.21
2019-05-12T03:30:49.542Z,91.03
2019-05-12T03:33:21.042Z,89.58
2019-05-12T03:35:59.855Z,88.09
2019-05-12T03:38:27.825Z,84.51
2019-05-12T03:40:58.663Z,83.96
2019-05-12T03:43:31.075Z,84.35
2019-05-12T03:46:05.210Z,84.91
2019-05-12T03:48:35.518Z,86.02
2019-05-12T03:51:06.833Z,86.42
2019-05-12T03:53:38.185Z,87.91
2019-05-12T03:56:09.645Z,88.08
2019-05-12T03:58:41.036Z,88.65
2019-05-12T04:01:15.046Z,88.57
2019-05-12T04:03:45.538Z,88.27
2019-05-12T04:06:16.849Z,87.08
2019-05-12T04:08:48.342Z,87.12
2019-05-12T04:11:19.776Z,85.83
2019-05-12T04:13:51.002Z,82.92
2019-05-12T04:16:24.696Z,84.37
2019-05-12T04:18:56.347Z,83.54
2019-05-12T04:21:27.740Z,81.66
2019-05-12T04:23:59.197Z,81.64
2019-05-12T04:26:30.480Z,80.82
2019-05-12T04:29:04.820Z,83.20
2019-05-12T04:31:36.833Z,83.65
2019-05-12T04:34:13.676Z,80.50
2019-05-12T04:36:44.934Z,80.93
2019-05-12T04:39:15.504Z,81.90
2019-05-12T04:41:46.953Z,83.41
2019-05-12T04:44:18.481Z,83.38
2019-05-12T04:46:49.784Z,82.66
2019-05-12T04:49:24.959Z,83.16
2019-05-12T04:51:55.295Z,81.00
2019-05-12T04:54:26.665Z,81.42
2019-05-12T04:56:57.989Z,79.59
2019-05-12T04:59:29.224Z,79.69
2019-05-12T05:02:00.576Z,78.42
2019-05-12T05:04:34.553Z,79.39
2019-05-12T05:07:05.010Z,79.85
2019-05-12T05:09:36.355Z,80.31
2019-05-12T05:12:07.574Z,78.62
2019-05-12T05:14:38.926Z,78.28
2019-05-12T05:17:10.318Z,79.25
2019-05-12T05:19:43.999Z,78.41
2019-05-12T05:22:14.757Z,77.69
2019-05-12T05:24:46.029Z,74.89
2019-05-12T05:27:17.500Z,74.01
2019-05-12T05:29:49.013Z,74.45
2019-05-12T05:32:20.483Z,74.89
2019-05-12T05:34:55.767Z,72.50
2019-05-12T05:37:24.764Z,72.83
2019-05-12T05:39:56.072Z,74.35
2019-05-12T05:42:32.675Z,77.50
2019-05-12T05:45:00.620Z,78.79
2019-05-12T05:47:33.626Z,77.91
2019-05-12T05:50:07.176Z,77.92
2019-05-12T05:52:38.878Z,77.39
2019-05-12T05:55:14.493Z,77.00
2019-05-12T05:57:44.388Z,76.54
2019-05-12T06:00:21.220Z,76.81
2019-05-12T06:02:49.099Z,75.71
2019-05-12T06:05:26.298Z,70.95
2019-05-12T06:07:53.653Z,73.16
2019-05-12T06:10:34.726Z,73.34
2019-05-12T06:12:58.130Z,73.88
2019-05-12T06:15:37.487Z,73.67
2019-05-12T06:18:03.987Z,70.97
2019-05-12T06:20:38.065Z,70.97
2019-05-12T06:23:08.527Z,67.77
2019-05-12T06:25:50.588Z,66.48
2019-05-12T06:28:14.506Z,65.08
2019-05-12T06:30:49.505Z,64.11
2019-05-12T06:33:24.761Z,61.71
2019-05-12T06:35:54.220Z,61.68
2019-05-12T06:38:25.341Z,64.02
2019-05-12T06:40:56.637Z,64.04
2019-05-12T06:43:29.177Z,64.41
2019-05-12T06:46:03.513Z,64.41
2019-05-12T06:48:34.296Z,64.17
2019-05-12T06:51:09.286Z,63.45
2019-05-12T06:53:38.832Z,63.75
2019-05-12T06:56:17.578Z,63.32
2019-05-12T06:58:44.226Z,61.92
2019-05-12T07:01:19.342Z,59.79
2019-05-12T07:03:48.701Z,61.57
2019-05-12T07:06:20.131Z,62.14
2019-05-12T07:09:06.005Z,60.79
2019-05-12T07:11:42.561Z,62.10
2019-05-12T07:14:12.853Z,60.56
2019-05-12T07:16:38.128Z,61.25
2019-05-12T07:19:20.611Z,61.76
2019-05-12T07:21:43.948Z,61.91
2019-05-12T07:24:15.342Z,61.42
2019-05-12T07:26:48.143Z,62.48
2019-05-12T07:29:19.922Z,62.23
2019-05-12T07:31:53.697Z,62.04
2019-05-12T07:34:24.143Z,62.57
2019-05-12T07:36:59.850Z,62.03
2019-05-12T07:39:36.971Z,61.23
2019-05-12T07:42:06.336Z,63.02
2019-05-12T07:44:41.157Z,62.65
2019-05-12T07:47:13.759Z,62.85
2019-05-12T07:49:45.308Z,63.13
2019-05-12T07:52:16.744Z,63.07
2019-05-12T07:54:48.048Z,63.11
2019-05-12T07:57:19.354Z,61.89
2019-05-12T07:59:51.165Z,62.56
2019-05-12T08:02:31.435Z,63.04
2019-05-12T08:04:55.553Z,62.46
2019-05-12T08:07:29.897Z,63.03
2019-05-12T08:09:59.928Z,61.06
2019-05-12T08:12:31.244Z,60.24
2019-05-12T08:15:05.409Z,61.60
2019-05-12T08:17:35.682Z,61.00
2019-05-12T08:20:07.523Z,61.05
2019-05-12T08:22:40.864Z,61.68
2019-05-12T08:25:13.515Z,60.30
2019-05-12T08:27:49.036Z,61.19
2019-05-12T08:30:19.039Z,60.08
2019-05-12T08:32:54.698Z,59.61
2019-05-12T08:35:29.350Z,59.81
2019-05-12T08:37:56.575Z,60.55
2019-05-12T08:40:27.925Z,60.75
2019-05-12T08:43:04.759Z,61.63
2019-05-12T08:45:37.053Z,61.87
2019-05-12T08:48:10.224Z,62.91
2019-05-12T08:50:42.598Z,62.52
2019-05-12T08:53:20.286Z,62.23
2019-05-12T08:55:45.626Z,62.00
2019-05-12T08:58:30.469Z,62.23
2019-05-12T09:00:50.635Z,62.38
2019-05-12T09:03:27.185Z,61.60
2019-05-12T09:05:54.826Z,62.02
2019-05-12T09:08:26.267Z,61.57
2019-05-12T09:10:57.710Z,61.74
2019-05-12T09:13:28.928Z,60.83
2019-05-12T09:16:00.220Z,60.42
2019-05-12T09:18:35.127Z,60.45
2019-05-12T09:21:05.073Z,60.98
2019-05-12T09:23:41.058Z,61.96
2019-05-12T09:26:09.392Z,61.90
2019-05-12T09:28:47.377Z,60.73
2019-05-12T09:31:14.202Z,60.14
2019-05-12T09:33:45.795Z,60.84
2019-05-12T09:36:19.696Z,60.18
2019-05-12T09:38:55.923Z,59.99
2019-05-12T09:41:24.039Z,60.65
2019-05-12T09:43:55.387Z,59.95
2019-05-12T09:46:28.379Z,60.90
2019-05-12T09:48:59.545Z,60.42
2019-05-12T09:51:32.931Z,60.62
2019-05-12T09:54:05.225Z,60.94
2019-05-12T09:56:36.530Z,61.34
2019-05-12T09:59:17.893Z,61.02
2019-05-12T10:01:43.870Z,60.58
2019-05-12T10:04:16.310Z,60.52
2019-05-12T10:06:46.236Z,60.33
2019-05-12T10:09:19.798Z,60.20
2019-05-12T10:11:51.865Z,59.07
2019-05-12T10:14:23.662Z,58.65
2019-05-12T10:16:54.953Z,59.43
2019-05-12T10:19:26.169Z,58.68
2019-05-12T10:21:59.461Z,58.73
2019-05-12T10:24:32.744Z,57.96
2019-05-12T10:27:03.794Z,56.92
2019-05-12T10:29:35.145Z,57.05
2019-05-12T10:32:06.458Z,56.85
2019-05-12T10:34:40.231Z,56.24
2019-05-12T10:37:10.352Z,57.18
2019-05-12T10:39:41.579Z,58.40
2019-05-12T10:42:13.743Z,59.41
2019-05-12T10:44:45.199Z,58.98
2019-05-12T10:47:16.483Z,58.01
2019-05-12T10:49:47.970Z,58.55
2019-05-12T10:52:19.295Z,59.24
2019-05-12T10:54:50.797Z,59.95
2019-05-12T10:57:22.304Z,61.26
2019-05-12T10:59:53.790Z,59.87
2019-05-12T11:02:26.442Z,59.29
2019-05-12T11:04:58.325Z,56.20
2019-05-12T11:07:30.033Z,56.02
2019-05-12T11:10:05.205Z,55.67
2019-05-12T11:12:33.949Z,55.51
2019-05-12T11:15:08.494Z,55.18
2019-05-12T11:17:49.827Z,55.20
2019-05-12T11:20:21.211Z,54.85
2019-05-12T11:22:54.254Z,54.21
2019-05-12T11:25:25.526Z,55.28
2019-05-12T11:27:56.817Z,54.15
2019-05-12T11:30:28.163Z,53.48
2019-05-12T11:32:59.916Z,53.66
2019-05-12T11:35:31.307Z,54.04
2019-05-12T11:38:04.493Z,53.60
2019-05-12T11:40:35.083Z,53.21
2019-05-12T11:43:06.206Z,52.33
2019-05-12T11:45:38.290Z,51.88
2019-05-12T11:48:10.452Z,51.78
2019-05-12T11:50:47.803Z,51.52
2019-05-12T11:53:14.909Z,51.77
2019-05-12T11:55:46.463Z,51.79
2019-05-12T11:58:18.008Z,52.01
2019-05-12T12:00:53.212Z,51.79
2019-05-12T12:03:24.252Z,51.32
2019-05-12T12:05:55.697Z,50.71
2019-05-12T12:08:35.215Z,51.66
2019-05-12T12:11:00.228Z,51.65
2019-05-12T12:13:33.566Z,51.62
2019-05-12T12:16:07.088Z,50.24
2019-05-12T12:18:38.167Z,49.88
2019-05-12T12:21:10.044Z,49.91
2019-05-12T12:23:47.139Z,50.02
2019-05-12T12:26:30.047Z,48.42
2019-05-12T12:28:58.816Z,48.00
2019-05-12T12:31:35.548Z,48.08
2019-05-12T12:34:05.249Z,48.57
2019-05-12T12:36:36.701Z,46.95
2019-05-12T12:39:08.159Z,47.36
2019-05-12T12:41:45.757Z,47.76
2019-05-12T12:44:13.617Z,47.04
2019-05-12T12:46:45.407Z,47.41
2019-05-12T12:49:16.847Z,47.54
2019-05-12T12:51:48.248Z,48.97
2019-05-12T12:54:25.543Z,49.52
2019-05-12T12:57:00.099Z,50.26
2019-05-12T12:59:33.277Z,50.58
2019-05-12T13:02:05.774Z,49.80
2019-05-12T13:04:39.485Z,49.81
2019-05-12T13:07:09.152Z,48.86
2019-05-12T13:09:40.469Z,49.87
2019-05-12T13:12:16.006Z,54.09
2019-05-12T13:14:45.530Z,54.86
2019-05-12T13:17:17.143Z,56.00
2019-05-12T13:19:48.775Z,56.97
2019-05-12T13:22:21.607Z,55.87
2019-05-12T13:24:53.288Z,55.83
2019-05-12T13:27:29.123Z,55.66
2019-05-12T13:30:01.596Z,55.42
2019-05-12T13:32:33.145Z,55.91
2019-05-12T13:35:09.666Z,56.40
2019-05-12T13:37:39.164Z,58.53
2019-05-12T13:40:10.665Z,58.41
2019-05-12T13:42:43.768Z,57.91
2019-05-12T13:45:16.332Z,58.01
2019-05-12T13:47:47.602Z,58.33
2019-05-12T13:50:26.215Z,57.77
2019-05-12T13:52:54.189Z,57.70
2019-05-12T13:55:25.306Z,57.12
2019-05-12T13:57:57.879Z,56.44
2019-05-12T14:00:29.358Z,57.30
2019-05-12T14:03:07.637Z,57.70
2019-05-12T14:05:33.726Z,57.34
2019-05-12T14:08:05.095Z,57.57
2019-05-12T14:10:37.622Z,56.98
2019-05-12T14:13:09.651Z,58.50
2019-05-12T14:15:41.094Z,59.44
2019-05-12T14:18:16.377Z,60.89
2019-05-12T14:20:45.282Z,60.28
2019-05-12T14:23:17.543Z,60.92
2019-05-12T14:25:48.810Z,61.58
2019-05-12T14:28:20.140Z,61.31
2019-05-12T14:30:53.890Z,60.69
2019-05-12T14:33:24.932Z,60.33
2019-05-12T14:35:56.262Z,59.87
2019-05-12T14:38:29.723Z,59.49
2019-05-12T14:41:01.275Z,57.67
2019-05-12T14:43:34.165Z,54.63
2019-05-12T14:46:10.146Z,54.49
2019-05-12T14:48:40.176Z,54.90
2019-05-12T14:51:14.108Z,55.83
2019-05-12T14:53:48.016Z,56.18
2019-05-12T14:56:19.048Z,57.38
2019-05-12T14:58:55.560Z,58.23
2019-05-12T15:01:37.484Z,59.91
2019-05-12T15:03:58.054Z,60.12
2019-05-12T15:06:29.660Z,60.67
2019-05-12T15:09:03.267Z,60.72
2019-05-12T15:11:34.338Z,60.25
2019-05-12T15:14:05.528Z,58.85
2019-05-12T15:16:40.575Z,58.81
2019-05-12T15:19:09.945Z,59.61
2019-05-12T15:21:43.541Z,60.28
2019-05-12T15:24:17.606Z,60.67
2019-05-12T15:26:50.614Z,61.46
2019-05-12T15:29:23.285Z,62.47
2019-05-12T15:31:56.838Z,62.73
2019-05-12T15:34:27.034Z,63.09
2019-05-12T15:37:00.338Z,62.83
2019-05-12T15:39:33.586Z,62.86
2019-05-12T15:42:04.918Z,61.50
2019-05-12T15:44:43.224Z,61.66
2019-05-12T15:47:13.981Z,62.17
2019-05-12T15:49:46.297Z,62.37
2019-05-12T15:52:24.519Z,62.08
2019-05-12T15:55:00.272Z,61.67
2019-05-12T15:57:33.478Z,61.75
2019-05-12T16:00:19.767Z,61.76
2019-05-12T16:02:53.306Z,61.73
2019-05-12T16:05:26.353Z,61.17
2019-05-12T16:07:57.592Z,62.23
2019-05-12T16:10:29.073Z,61.95
2019-05-12T16:13:00.555Z,61.98
2019-05-12T16:15:36.550Z,61.64
2019-05-12T16:18:09.809Z,61.23
2019-05-12T16:20:41.031Z,61.51
2019-05-12T16:23:15.497Z,62.15
2019-05-12T16:25:45.522Z,62.82
2019-05-12T16:28:22.916Z,63.71
2019-05-12T16:30:50.058Z,63.97
2019-05-12T16:33:22.109Z,64.67
2019-05-12T16:35:54.608Z,64.88
2019-05-12T16:38:26.282Z,65.13
2019-05-12T16:40:57.735Z,64.91
2019-05-12T16:43:34.425Z,64.72
2019-05-12T16:46:04.334Z,64.90
2019-05-12T16:48:36.382Z,65.67
2019-05-12T16:51:07.929Z,66.44
2019-05-12T16:53:39.158Z,66.66
2019-05-12T16:56:10.442Z,67.39
2019-05-12T16:58:43.457Z,67.50
2019-05-12T17:01:19.575Z,67.71
2019-05-12T17:03:48.193Z,68.25
2019-05-12T17:06:20.550Z,68.55
2019-05-12T17:08:54.264Z,69.16
2019-05-12T17:11:30.718Z,68.95
2019-05-12T17:14:04.088Z,68.78
2019-05-12T17:16:41.555Z,69.48
2019-05-12T17:19:10.240Z,69.59
2019-05-12T17:21:38.936Z,70.17
2019-05-12T17:24:10.419Z,69.55
2019-05-12T17:26:43.859Z,69.37
2019-05-12T17:29:14.983Z,69.47
2019-05-12T17:31:46.310Z,69.89
2019-05-12T17:34:17.646Z,70.39
2019-05-12T17:36:50.090Z,70.56
2019-05-12T17:39:43.837Z,71.18
2019-05-12T17:42:21.487Z,71.56
2019-05-12T17:44:48.677Z,71.41
2019-05-12T17:47:24.166Z,71.88
2019-05-12T17:49:53.925Z,71.93
2019-05-12T17:52:25.367Z,71.96
2019-05-12T17:55:04.579Z,71.86
2019-05-12T17:57:29.965Z,71.94
2019-05-12T18:00:06.167Z,72.72
2019-05-12T18:02:34.381Z,73.59
2019-05-12T18:05:12.271Z,73.19
2019-05-12T18:07:40.549Z,73.34
2019-05-12T18:10:16.699Z,74.50
2019-05-12T18:12:48.080Z,75.08
2019-05-12T18:15:23.394Z,75.34
2019-05-12T18:17:53.275Z,75.86
2019-05-12T18:20:44.519Z,76.12
2019-05-12T18:23:19.879Z,76.27
2019-05-12T18:25:49.195Z,76.71
2019-05-12T18:28:21.677Z,76.77
2019-05-12T18:30:53.894Z,77.28
2019-05-12T18:33:33.796Z,77.31
2019-05-12T18:36:04.746Z,76.88
2019-05-12T18:38:39.232Z,77.73
2019-05-12T18:41:13.879Z,77.44
2019-05-12T18:43:46.559Z,77.27
2019-05-12T18:46:18.085Z,78.17
2019-05-12T18:48:54.157Z,78.64
2019-05-12T18:51:23.786Z,79.00
2019-05-12T18:53:57.848Z,79.32
2019-05-12T18:56:29.858Z,79.22
2019-05-12T18:59:11.385Z,79.78
2019-05-12T19:01:37.720Z,80.11
2019-05-12T19:04:09.172Z,79.94
2019-05-12T19:06:40.546Z,79.78
2019-05-12T19:09:13.701Z,78.70
2019-05-12T19:11:46.715Z,78.54
2019-05-12T19:14:18.391Z,78.75
2019-05-12T19:16:49.820Z,79.37
2019-05-12T19:19:23.611Z,78.65
2019-05-12T19:22:04.772Z,77.51
2019-05-12T19:24:36.027Z,77.21
2019-05-12T19:27:04.554Z,77.12
2019-05-12T19:29:45.683Z,77.50
2019-05-12T19:32:13.738Z,77.80
2019-05-12T19:34:46.811Z,77.51
2019-05-12T19:37:19.461Z,77.47
2019-05-12T19:43:08.234Z,77.28
2019-05-12T19:45:39.697Z,77.15
2019-05-12T19:48:26.561Z,77.45
2019-05-12T19:50:57.003Z,77.46
2019-05-12T19:53:26.754Z,77.62
2019-05-12T19:56:03.866Z,78.04
2019-05-12T19:58:45.825Z,78.30
2019-05-12T20:01:26.106Z,78.14
2019-05-12T20:03:56.171Z,78.02
2019-05-12T20:06:28.553Z,78.31
2019-05-12T20:09:06.706Z,78.21
2019-05-12T20:11:35.190Z,78.00
2019-05-12T20:14:09.998Z,78.24
2019-05-12T20:16:40.756Z,78.68
2019-05-12T20:19:13.585Z,78.74
2019-05-12T20:21:45.133Z,78.31
2019-05-12T20:24:17.653Z,78.13
2019-05-12T20:26:50.198Z,77.76
2019-05-12T20:29:24.576Z,78.05
2019-05-12T20:31:57.265Z,77.96
2019-05-12T20:34:28.535Z,77.31
2019-05-12T20:37:07.620Z,77.56
2019-05-12T20:39:33.151Z,77.57
2019-05-12T20:42:05.289Z,77.46
2019-05-12T20:44:36.845Z,77.57
2019-05-12T20:47:08.211Z,77.61
2019-05-12T20:49:42.961Z,78.09
2019-05-12T20:52:14.419Z,78.47
2019-05-12T20:54:49.218Z,78.70
2019-05-12T20:57:18.703Z,78.67
2019-05-12T20:59:50.130Z,78.19
2019-05-12T21:02:23.377Z,78.39
2019-05-12T21:05:00.916Z,78.41
2019-05-12T21:07:28.122Z,79.12
2019-05-12T21:09:59.557Z,78.62
2019-05-12T21:12:33.293Z,78.39
2019-05-12T21:15:16.295Z,78.48
2019-05-12T21:17:43.446Z,78.72
2019-05-12T21:20:16.596Z,77.82
2019-05-12T21:22:45.907Z,77.70
2019-05-12T21:25:17.397Z,77.65
2019-05-12T21:27:55.053Z,77.20
2019-05-12T21:30:24.495Z,77.52
2019-05-12T21:32:59.694Z,77.80
2019-05-12T21:35:33.020Z,76.33
2019-05-12T21:38:01.020Z,76.53
2019-05-12T21:40:36.104Z,76.83
2019-05-12T21:43:07.516Z,75.93
2019-05-12T21:45:38.995Z,76.01
2019-05-12T21:48:15.001Z,75.56
2019-05-12T21:50:44.315Z,77.44
2019-05-12T21:53:20.055Z,75.91
2019-05-12T21:55:48.959Z,77.11
2019-05-12T21:58:20.237Z,76.17
2019-05-12T22:01:03.911Z,76.39
2019-05-12T22:03:30.496Z,75.69
2019-05-12T22:06:06.450Z,76.10
2019-05-12T22:08:35.250Z,75.61
2019-05-12T22:11:11.477Z,75.63
2019-05-12T22:13:46.775Z,76.69
2019-05-12T22:16:14.155Z,77.47
2019-05-12T22:18:47.794Z,77.48
2019-05-12T22:21:18.752Z,76.98
2019-05-12T22:23:51.623Z,77.26
2019-05-12T22:26:23.438Z,77.70
2019-05-12T22:28:54.755Z,77.79
2019-05-12T22:31:26.196Z,78.03
2019-05-12T22:33:57.517Z,77.75
2019-05-12T22:36:30.178Z,77.36
2019-05-12T22:39:03.100Z,78.15
2019-05-12T22:41:36.841Z,78.01
2019-05-12T22:44:07.755Z,78.40
2019-05-12T22:46:39.033Z,78.51
2019-05-12T22:49:15.918Z,78.07
2019-05-12T22:51:43.578Z,78.29
2019-05-12T22:54:16.564Z,77.73
2019-05-12T22:56:49.666Z,78.17
2019-05-12T22:59:21.309Z,78.16
2019-05-12T23:01:54.281Z,78.12
2019-05-12T23:04:34.555Z,77.86
2019-05-12T23:06:58.932Z,77.85
2019-05-12T23:09:30.400Z,77.85
2019-05-12T23:12:04.017Z,78.29
2019-05-12T23:14:34.720Z,78.34
2019-05-12T23:17:07.477Z,78.66
2019-05-12T23:19:42.996Z,78.89
2019-05-12T23:22:14.263Z,78.34
2019-05-12T23:24:45.306Z,78.48
2019-05-12T23:27:18.734Z,78.72
2019-05-12T23:29:49.748Z,78.70
2019-05-12T23:32:21.102Z,79.02
2019-05-12T23:34:57.293Z,78.92
2019-05-12T23:37:30.126Z,79.15
2019-05-12T23:39:58.625Z,79.30
2019-05-12T23:42:30.074Z,79.08
2019-05-12T23:45:03.467Z,79.50
2019-05-12T23:47:34.472Z,79.58
2019-05-12T23:50:09.964Z,79.27
2019-05-12T23:52:43.761Z,79.39
2019-05-12T23:55:14.533Z,79.30
2019-05-12T23:57:45.846Z,79.04
